createdAt,value
2022-12-04T00:00:49.814Z,97933.88
2022-12-04T00:03:54.456Z,97932.94
2022-12-04T00:06:59.286Z,97926.81
2022-12-04T00:10:03.253Z,97920.13
2022-12-04T00:13:06.839Z,97896.50
2022-12-04T00:16:13.689Z,97902.25
2022-12-04T00:19:17.294Z,97906.59
2022-12-04T00:22:21.994Z,97905.78
2022-12-04T00:25:25.278Z,97912.13
2022-12-04T00:28:28.931Z,97912.44
2022-12-04T00:31:32.716Z,97907.41
2022-12-04T00:34:36.020Z,97910.91
2022-12-04T00:37:40.619Z,97901.41
2022-12-04T00:40:50.586Z,97896.91
2022-12-04T00:43:53.941Z,97895.81
2022-12-04T00:46:57.238Z,97898.03
2022-12-04T00:50:00.490Z,97891.81
2022-12-04T00:53:05.619Z,97892.66
2022-12-04T00:56:11.999Z,97877.94
2022-12-04T00:59:15.268Z,97868.31
2022-12-04T01:02:18.798Z,97859.72
2022-12-04T01:05:23.024Z,97875.38
2022-12-04T01:08:27.936Z,97870.59
2022-12-04T01:11:32.703Z,97873.25
2022-12-04T01:14:38.044Z,97868.97
2022-12-04T01:17:41.372Z,97870.38
2022-12-04T01:20:48.606Z,97875.63
2022-12-04T01:23:54.017Z,97858.56
2022-12-04T01:26:57.281Z,97869.94
2022-12-04T01:30:00.810Z,97875.41
2022-12-04T01:33:04.119Z,97874.03
2022-12-04T01:36:09.797Z,97865.44
2022-12-04T01:39:14.422Z,97872.16
2022-12-04T01:42:18.387Z,97875.63
2022-12-04T01:45:47.284Z,97854.50
2022-12-04T01:48:53.457Z,97859.44
2022-12-04T01:52:00.313Z,97858.69
2022-12-04T01:55:05.349Z,97851.91
2022-12-04T01:58:10.031Z,97856.19
2022-12-04T02:01:13.607Z,97856.34
2022-12-04T02:04:16.935Z,97862.78
2022-12-04T02:07:20.918Z,97856.81
2022-12-04T02:10:36.027Z,97862.72
2022-12-04T02:13:48.265Z,97865.19
2022-12-04T02:17:00.258Z,97864.53
2022-12-04T02:20:26.212Z,97872.56
2022-12-04T02:23:47.846Z,97873.63
2022-12-04T02:26:59.971Z,97877.84
2022-12-04T02:30:07.467Z,97874.50
2022-12-04T02:33:20.460Z,97874.41
2022-12-04T02:36:28.424Z,97873.56
2022-12-04T02:39:37.088Z,97870.47
2022-12-04T02:42:43.360Z,97868.59
2022-12-04T02:45:54.499Z,97872.81
2022-12-04T02:49:03.159Z,97860.06
2022-12-04T02:52:11.231Z,97853.06
2022-12-04T02:55:17.277Z,97856.66
2022-12-04T02:58:26.547Z,97855.78
2022-12-04T03:01:35.586Z,97851.16
2022-12-04T03:04:41.062Z,97859.31
2022-12-04T03:07:50.322Z,97852.28
2022-12-04T03:10:57.524Z,97853.97
2022-12-04T03:14:09.391Z,97822.84
2022-12-04T03:17:18.341Z,97828.41
2022-12-04T03:20:23.203Z,97821.78
2022-12-04T03:23:32.298Z,97826.81
2022-12-04T03:26:39.912Z,97835.63
2022-12-04T03:29:47.579Z,97823.53
2022-12-04T03:32:57.208Z,97815.75
2022-12-04T03:36:09.269Z,97813.34
2022-12-04T03:39:19.106Z,97808.03
2022-12-04T03:42:26.692Z,97801.44
2022-12-04T03:45:37.337Z,97807.38
2022-12-04T03:48:46.483Z,97811.84
2022-12-04T03:51:56.148Z,97811.88
2022-12-04T03:55:03.085Z,97805.69
2022-12-04T03:58:12.201Z,97808.47
2022-12-04T04:01:19.277Z,97805.72
2022-12-04T04:04:29.288Z,97807.59
2022-12-04T04:07:37.276Z,97795.94
2022-12-04T04:10:41.970Z,97790.53
2022-12-04T04:14:12.293Z,97791.00
2022-12-04T04:17:39.194Z,97789.31
2022-12-04T04:21:09.222Z,97790.81
2022-12-04T04:24:23.045Z,97779.63
2022-12-04T04:27:26.264Z,97778.97
2022-12-04T04:30:33.088Z,97770.47
2022-12-04T04:35:01.621Z,97770.16
2022-12-04T04:38:11.073Z,97777.00
2022-12-04T04:41:20.687Z,97782.38
2022-12-04T04:44:30.273Z,97784.84
2022-12-04T04:47:38.067Z,97705.44
2022-12-04T04:50:43.640Z,97804.06
2022-12-04T04:53:49.127Z,97795.75
2022-12-04T04:56:52.988Z,97797.25
2022-12-04T04:59:56.940Z,97809.34
2022-12-04T05:03:00.953Z,97819.56
2022-12-04T05:06:06.322Z,97815.31
2022-12-04T05:09:09.578Z,97812.84
2022-12-04T05:12:12.960Z,97813.31
2022-12-04T05:15:16.542Z,97816.13
2022-12-04T05:18:19.896Z,97762.53
2022-12-04T05:21:23.567Z,97811.97
2022-12-04T05:24:26.997Z,97811.09
2022-12-04T05:27:31.568Z,97814.47
2022-12-04T05:30:35.676Z,97817.03
2022-12-04T05:33:38.975Z,97817.09
2022-12-04T05:36:43.598Z,97823.03
2022-12-04T05:39:46.997Z,97824.75
2022-12-04T05:42:50.249Z,97820.31
2022-12-04T05:45:53.914Z,97816.19
2022-12-04T05:48:58.618Z,97824.84
2022-12-04T05:52:06.419Z,97819.44
2022-12-04T05:55:09.941Z,97810.09
2022-12-04T05:58:13.325Z,97819.31
2022-12-04T06:01:18.837Z,97827.31
2022-12-04T06:04:22.238Z,97820.31
2022-12-04T06:07:27.852Z,97825.41
2022-12-04T06:10:31.617Z,97832.22
2022-12-04T06:13:34.818Z,97832.25
2022-12-04T06:16:41.106Z,97827.00
2022-12-04T06:19:44.660Z,97828.50
2022-12-04T06:22:49.222Z,97834.25
2022-12-04T06:25:52.421Z,97838.13
2022-12-04T06:28:56.878Z,97794.31
2022-12-04T06:32:00.477Z,97838.03
2022-12-04T06:35:04.242Z,97826.13
2022-12-04T06:38:10.228Z,97815.06
2022-12-04T06:41:15.837Z,97824.91
2022-12-04T06:44:19.453Z,97834.53
2022-12-04T06:47:23.019Z,97835.34
2022-12-04T06:50:26.301Z,97845.66
2022-12-04T06:53:32.497Z,97845.75
2022-12-04T06:56:36.073Z,97848.22
2022-12-04T06:59:39.453Z,97850.31
2022-12-04T07:02:43.022Z,97847.31
2022-12-04T07:05:46.535Z,97846.94
2022-12-04T07:08:53.380Z,97843.69
2022-12-04T07:11:56.646Z,97834.50
2022-12-04T07:15:00.094Z,97831.91
2022-12-04T07:18:06.109Z,97803.75
2022-12-04T07:21:11.809Z,97813.03
2022-12-04T07:24:18.156Z,97794.44
2022-12-04T07:27:21.390Z,97790.00
2022-12-04T07:30:24.718Z,97784.13
2022-12-04T07:33:27.966Z,97793.03
2022-12-04T07:36:31.294Z,97802.91
2022-12-04T07:39:36.282Z,97797.44
2022-12-04T07:42:39.685Z,97797.63
2022-12-04T07:45:43.022Z,97794.13
2022-12-04T07:48:47.526Z,97795.63
2022-12-04T07:51:50.800Z,97798.72
2022-12-04T07:54:55.581Z,97814.78
2022-12-04T07:57:58.970Z,97810.72
2022-12-04T08:01:09.993Z,97814.28
2022-12-04T08:04:13.645Z,97798.97
2022-12-04T08:07:17.010Z,97806.06
2022-12-04T08:10:21.770Z,97777.69
2022-12-04T08:13:25.306Z,97812.44
2022-12-04T08:16:30.149Z,97813.50
2022-12-04T08:19:33.489Z,97819.47
2022-12-04T08:22:36.879Z,97814.94
2022-12-04T08:25:42.129Z,97811.13
2022-12-04T08:28:46.188Z,97807.84
2022-12-04T08:31:52.890Z,97787.00
2022-12-04T08:34:56.843Z,97813.72
2022-12-04T08:38:00.291Z,97817.34
2022-12-04T08:41:06.706Z,97810.34
2022-12-04T08:44:10.640Z,97819.41
2022-12-04T08:47:14.964Z,97817.72
2022-12-04T08:50:18.428Z,97835.88
2022-12-04T08:53:23.940Z,97829.78
2022-12-04T08:56:30.053Z,97830.28
2022-12-04T08:59:33.902Z,97822.34
2022-12-04T09:02:37.153Z,97814.56
2022-12-04T09:05:41.560Z,97822.25
2022-12-04T09:08:45.095Z,97828.00
2022-12-04T09:11:49.800Z,97833.03
2022-12-04T09:14:53.138Z,97828.25
2022-12-04T09:17:56.456Z,97831.69
2022-12-04T09:21:01.628Z,97823.94
2022-12-04T09:24:05.343Z,97820.13
2022-12-04T09:27:14.659Z,97806.53
2022-12-04T09:30:18.551Z,97816.91
2022-12-04T09:33:21.790Z,97814.75
2022-12-04T09:36:25.058Z,97806.84
2022-12-04T09:39:28.327Z,97809.63
2022-12-04T09:46:07.823Z,97787.47
2022-12-04T09:49:15.433Z,97773.75
2022-12-04T09:52:31.924Z,97771.72
2022-12-04T09:55:38.504Z,97766.56
2022-12-04T09:58:48.015Z,97773.31
2022-12-04T10:01:59.772Z,97781.28
2022-12-04T10:05:03.673Z,97784.97
2022-12-04T10:08:18.061Z,97776.06
2022-12-04T10:11:31.999Z,97755.63
2022-12-04T10:14:52.192Z,97761.63
2022-12-04T10:18:11.134Z,97762.13
2022-12-04T10:21:28.195Z,97758.53
2022-12-04T10:24:42.963Z,97755.78
2022-12-04T10:27:50.934Z,97745.81
2022-12-04T10:34:57.904Z,97694.53
2022-12-04T10:38:05.854Z,97728.66
2022-12-04T10:41:15.470Z,97717.53
2022-12-04T10:44:21.422Z,97729.66
2022-12-04T10:47:26.337Z,97719.53
2022-12-04T10:50:30.942Z,97705.03
2022-12-04T10:53:38.139Z,97700.16
2022-12-04T10:56:52.107Z,97702.00
2022-12-04T10:59:57.784Z,97698.88
2022-12-04T11:03:03.261Z,97693.97
2022-12-04T11:06:11.320Z,97679.19
2022-12-04T11:09:22.338Z,97677.88
2022-12-04T11:12:25.998Z,97666.63
2022-12-04T11:15:30.015Z,97658.88
2022-12-04T11:18:35.519Z,97649.09
2022-12-04T11:21:40.347Z,97679.53
2022-12-04T11:24:50.630Z,97662.53
2022-12-04T11:27:56.750Z,97660.81
2022-12-04T11:31:03.021Z,97652.66
2022-12-04T11:34:09.408Z,97643.75
2022-12-04T11:37:22.384Z,97646.47
2022-12-04T11:40:27.706Z,97654.00
2022-12-04T11:43:34.222Z,97661.88
2022-12-04T11:46:38.072Z,97661.34
2022-12-04T11:49:43.956Z,97665.81
2022-12-04T11:53:02.723Z,97671.66
2022-12-04T11:56:10.885Z,97663.81
2022-12-04T11:59:41.403Z,97666.47
2022-12-04T12:03:04.157Z,97659.28
2022-12-04T12:06:19.909Z,97655.38
2022-12-04T12:09:31.324Z,97654.22
2022-12-04T12:12:45.864Z,97646.47
2022-12-04T12:15:58.775Z,97641.28
2022-12-04T12:19:18.720Z,97621.69
2022-12-04T12:22:48.379Z,97613.09
2022-12-04T12:26:02.307Z,97612.03
2022-12-04T12:29:22.018Z,97606.19
2022-12-04T12:32:54.409Z,97618.09
2022-12-04T12:36:04.400Z,97607.56
2022-12-04T12:39:16.082Z,97608.94
2022-12-04T12:42:26.149Z,97613.75
2022-12-04T12:45:36.934Z,97611.03
2022-12-04T12:48:47.301Z,97616.75
2022-12-04T12:51:55.852Z,97617.38
2022-12-04T12:55:03.693Z,97607.13
2022-12-04T12:58:15.094Z,97596.28
2022-12-04T13:01:20.762Z,97600.59
2022-12-04T13:04:32.872Z,97593.44
2022-12-04T13:07:46.753Z,97599.22
2022-12-04T13:10:54.880Z,97599.88
2022-12-04T13:14:00.488Z,97588.94
2022-12-04T13:17:07.187Z,97579.97
2022-12-04T13:20:19.871Z,97580.47
2022-12-04T13:23:40.474Z,97575.94
2022-12-04T13:26:52.146Z,97567.81
2022-12-04T13:30:17.084Z,97565.19
2022-12-04T13:33:51.286Z,97565.13
2022-12-04T13:37:36.137Z,97573.66
2022-12-04T13:40:42.053Z,97566.69
2022-12-04T13:43:50.286Z,97564.31
2022-12-04T13:46:58.313Z,97571.03
2022-12-04T13:50:28.353Z,97554.03
2022-12-04T13:53:33.920Z,97563.31
2022-12-04T13:56:37.390Z,97556.16
2022-12-04T13:59:41.809Z,97533.72
2022-12-04T14:02:52.520Z,97558.31
2022-12-04T14:05:56.954Z,97553.66
2022-12-04T14:09:03.681Z,97561.50
2022-12-04T14:12:11.708Z,97558.31
2022-12-04T14:15:23.221Z,97559.97
2022-12-04T14:18:30.401Z,97529.59
2022-12-04T14:21:41.125Z,97552.28
2022-12-04T14:24:44.496Z,97556.34
2022-12-04T14:27:51.808Z,97551.88
2022-12-04T14:31:15.864Z,97561.72
2022-12-04T14:34:29.251Z,97575.03
2022-12-04T14:37:37.508Z,97560.75
2022-12-04T14:40:46.361Z,97571.03
2022-12-04T14:43:50.343Z,97555.72
2022-12-04T14:46:56.425Z,97558.63
2022-12-04T14:50:15.092Z,97562.00
2022-12-04T14:53:31.511Z,97561.06
2022-12-04T14:56:48.337Z,97561.94
2022-12-04T14:59:53.966Z,97565.13
2022-12-04T15:03:00.790Z,97566.63
2022-12-04T15:06:09.938Z,97570.53
2022-12-04T15:09:37.304Z,97573.72
2022-12-04T15:12:45.852Z,97570.38
2022-12-04T15:15:53.577Z,97568.72
2022-12-04T15:18:57.822Z,97582.25
2022-12-04T15:22:10.098Z,97580.03
2022-12-04T15:25:19.520Z,97576.69
2022-12-04T15:28:25.446Z,97586.03
2022-12-04T15:31:32.510Z,97582.38
2022-12-04T15:34:39.788Z,97583.66
2022-12-04T15:37:44.954Z,97584.56
2022-12-04T15:40:53.895Z,97589.66
2022-12-04T15:43:57.713Z,97592.94
2022-12-04T15:47:03.254Z,97579.63
2022-12-04T15:50:12.327Z,97593.06
2022-12-04T15:53:22.490Z,97594.88
2022-12-04T15:56:26.205Z,97601.69
2022-12-04T15:59:32.259Z,97588.59
2022-12-04T16:02:38.602Z,97602.53
2022-12-04T16:05:42.248Z,97605.19
2022-12-04T16:08:52.377Z,97605.94
2022-12-04T16:12:01.219Z,97599.13
2022-12-04T16:15:05.463Z,97607.75
2022-12-04T16:18:15.676Z,97609.25
2022-12-04T16:21:27.380Z,97608.47
2022-12-04T16:24:32.492Z,97616.06
2022-12-04T16:27:58.275Z,97605.78
2022-12-04T16:34:59.209Z,97604.75
2022-12-04T16:38:07.005Z,97599.19
2022-12-04T16:41:32.944Z,97564.81
2022-12-04T16:44:42.937Z,97591.44
2022-12-04T16:47:53.012Z,97591.88
2022-12-04T16:51:12.948Z,97590.31
2022-12-04T16:54:20.068Z,97588.22
2022-12-04T16:57:29.883Z,97592.06
2022-12-04T17:00:45.278Z,97597.00
2022-12-04T17:03:59.976Z,97600.84
2022-12-04T17:07:13.902Z,97598.00
2022-12-04T17:10:24.515Z,97600.75
2022-12-04T17:13:40.958Z,97588.81
2022-12-04T17:16:54.944Z,97592.34
2022-12-04T17:20:18.428Z,97609.00
2022-12-04T17:23:31.636Z,97608.72
2022-12-04T17:26:40.570Z,97608.34
2022-12-04T17:30:07.266Z,97604.31
2022-12-04T17:33:17.438Z,97613.97
2022-12-04T17:36:37.748Z,97615.88
2022-12-04T17:39:48.085Z,97613.25
2022-12-04T17:43:02.214Z,97625.88
2022-12-04T17:46:13.106Z,97629.13
2022-12-04T17:49:27.617Z,97635.13
2022-12-04T17:52:33.276Z,97629.88
2022-12-04T17:55:46.867Z,97636.88
2022-12-04T17:59:09.844Z,97640.41
2022-12-04T18:02:14.864Z,97643.69
2022-12-04T18:05:18.098Z,97629.25
2022-12-04T18:08:24.133Z,97632.00
2022-12-04T18:11:31.342Z,97631.16
2022-12-04T18:14:35.407Z,97605.72
2022-12-04T18:17:41.332Z,97601.38
2022-12-04T18:20:44.667Z,97611.53
2022-12-04T18:23:50.547Z,97611.63
2022-12-04T18:27:05.307Z,97601.94
2022-12-04T18:30:13.519Z,97600.16
2022-12-04T18:33:19.064Z,97596.78
2022-12-04T18:36:26.321Z,97601.97
2022-12-04T18:39:29.732Z,97598.41
2022-12-04T18:42:41.745Z,97596.84
2022-12-04T18:45:51.512Z,97600.75
2022-12-04T18:49:03.473Z,97589.34
2022-12-04T18:52:11.991Z,97630.06
2022-12-04T18:55:28.413Z,97626.97
2022-12-04T18:58:40.553Z,97628.84
2022-12-04T19:01:55.262Z,97630.34
2022-12-04T19:05:13.515Z,97631.06
2022-12-04T19:08:19.938Z,97620.00
2022-12-04T19:11:24.012Z,97623.16
2022-12-04T19:14:29.691Z,97623.63
2022-12-04T19:17:38.494Z,97621.28
2022-12-04T19:20:44.700Z,97617.09
2022-12-04T19:23:53.851Z,97611.53
2022-12-04T19:27:26.027Z,97623.28
2022-12-04T19:30:34.571Z,97629.78
2022-12-04T19:33:38.327Z,97630.00
2022-12-04T19:36:42.621Z,97634.34
2022-12-04T19:39:48.832Z,97638.59
2022-12-04T19:43:01.159Z,97637.91
2022-12-04T19:46:12.825Z,97618.13
2022-12-04T19:49:16.467Z,97653.38
2022-12-04T19:52:21.948Z,97638.13
2022-12-04T19:55:31.449Z,97597.25
2022-12-04T19:58:35.758Z,97579.22
2022-12-04T20:01:46.200Z,97652.72
2022-12-04T20:04:52.681Z,97652.03
2022-12-04T20:11:05.127Z,97646.84
2022-12-04T20:14:10.454Z,97651.16
2022-12-04T20:17:16.703Z,97653.66
2022-12-04T20:20:20.740Z,97657.91
2022-12-04T20:23:41.155Z,97659.63
2022-12-04T20:26:46.271Z,97664.53
2022-12-04T20:29:51.797Z,97611.56
2022-12-04T20:32:59.868Z,97674.84
2022-12-04T20:36:03.449Z,97672.63
2022-12-04T20:39:08.008Z,97689.78
2022-12-04T20:42:12.052Z,97689.81
2022-12-04T20:45:15.499Z,97685.88
2022-12-04T20:48:43.024Z,97684.59
2022-12-04T20:51:49.302Z,97684.47
2022-12-04T20:54:55.192Z,97677.16
2022-12-04T20:57:58.903Z,97625.94
2022-12-04T21:01:07.108Z,97682.56
2022-12-04T21:04:13.067Z,97683.19
2022-12-04T21:07:18.623Z,97637.16
2022-12-04T21:10:22.465Z,97680.94
2022-12-04T21:13:45.565Z,97689.84
2022-12-04T21:16:50.291Z,97686.22
2022-12-04T21:19:56.627Z,97685.38
2022-12-04T21:23:00.988Z,97690.47
2022-12-04T21:26:04.878Z,97693.03
2022-12-04T21:29:09.225Z,97697.28
2022-12-04T21:32:12.511Z,97699.09
2022-12-04T21:35:17.260Z,97701.56
2022-12-04T21:38:20.671Z,97698.28
2022-12-04T21:41:41.949Z,97708.50
2022-12-04T21:44:45.192Z,97718.75
2022-12-04T21:47:49.375Z,97715.34
2022-12-04T21:50:54.878Z,97715.97
2022-12-04T21:53:58.335Z,97724.03
2022-12-04T21:57:01.826Z,97724.88
2022-12-04T22:00:06.141Z,97726.75
2022-12-04T22:03:09.406Z,97736.13
2022-12-04T22:06:14.424Z,97736.81
2022-12-04T22:09:18.762Z,97736.06
2022-12-04T22:15:46.892Z,97740.25
2022-12-04T22:18:50.273Z,97738.53
2022-12-04T22:21:54.864Z,97740.25
2022-12-04T22:25:01.480Z,97748.84
2022-12-04T22:28:06.401Z,97749.75
2022-12-04T22:34:53.546Z,97742.00
2022-12-04T22:37:56.724Z,97745.41
2022-12-04T22:41:01.245Z,97749.91
2022-12-04T22:44:05.040Z,97758.72
2022-12-04T22:47:08.791Z,97759.91
2022-12-04T22:50:13.719Z,97753.97
2022-12-04T22:53:16.893Z,97756.56
2022-12-04T22:56:21.974Z,97759.91
2022-12-04T22:59:25.572Z,97758.34
2022-12-04T23:02:29.049Z,97770.81
2022-12-04T23:05:35.515Z,97769.28
2022-12-04T23:08:40.273Z,97759.84
2022-12-04T23:11:44.259Z,97765.00
2022-12-04T23:14:47.529Z,97764.16
2022-12-04T23:17:51.096Z,97765.09
2022-12-04T23:21:03.175Z,97762.53
2022-12-04T23:24:07.226Z,97766.81
2022-12-04T23:27:10.564Z,97770.84
2022-12-04T23:30:14.129Z,97772.66
2022-12-04T23:33:17.484Z,97773.72
2022-12-04T23:36:22.765Z,97733.97
2022-12-04T23:39:26.430Z,97767.81
2022-12-04T23:42:31.786Z,97737.66
2022-12-04T23:45:35.403Z,97778.97
2022-12-04T23:48:39.229Z,97784.13
2022-12-04T23:51:43.893Z,97776.44
2022-12-04T23:54:50.656Z,97785.81
2022-12-04T23:57:55.294Z,97795.59
